Lord Of The Glens — ZQOE9 — position and weather

sailwx.info

Track history (hours):
 
Tides and Currents Weather Stations Pressure Air Temp Water Temp Dewpoint Dewpoint Depression Visibility Wind Speed Wind Dir Waves Ship Positions

Lord Of The Glens

Operator: V Ships UK Ltd

Last reported at 2017-May-29 17:00 UTC. Time now 2017-May-29 17:03 UTC.
Position N 57°17' W 005°43'.

Length 45 m; draft 2.8 m.

Type: Passenger vessel. MMSI: 235000295.

Date/timePositionNaut miles runAvg speedWind from/ knotsBaromVisibWave heightAir tempDewpointWater temp
2017-May-29 17:00N 57°17' W 005°43'0 0.0
2017-May-29 16:30N 57°17' W 005°43'0 0.0
2017-May-29 16:00N 57°17' W 005°43'0 0.0
2017-May-29 15:30N 57°17' W 005°43'0 0.0
2017-May-29 15:00N 57°17' W 005°43'0 0.0
2017-May-29 14:30N 57°17' W 005°43'0 0.0
2017-May-29 13:30N 57°17' W 005°43'0 0.0
2017-May-29 13:00N 57°17' W 005°43'0 0.0
2017-May-29 12:26N 57°17' W 005°43'0 0.0
2017-May-29 11:59N 57°17' W 005°43'0 0.0
2017-May-29 11:30N 57°17' W 005°43'0 0.0
2017-May-29 11:00N 57°17' W 005°43'0 0.0
2017-May-29 10:29N 57°17' W 005°43'0 0.0
2017-May-29 09:59N 57°17' W 005°43'0 0.0
2017-May-29 09:29N 57°17' W 005°43'0 0.0
2017-May-29 08:59N 57°17' W 005°43'0 0.0
2017-May-29 08:29N 57°17' W 005°43'0 0.0
2017-May-29 08:00N 57°17' W 005°43'0 0.0
2017-May-29 07:30N 57°17' W 005°43'0 0.0
2017-May-29 06:59N 57°17' W 005°43'0 0.0
2017-May-29 06:29N 57°17' W 005°43'0 0.0
2017-May-29 05:59N 57°17' W 005°43'0 0.0
2017-May-29 05:26N 57°17' W 005°43'0 0.0
2017-May-29 05:00N 57°17' W 005°43'0 0.0
2017-May-29 04:30N 57°17' W 005°43'0 0.0
2017-May-29 04:00N 57°17' W 005°43'0 0.0
2017-May-29 03:29N 57°17' W 005°43'0 0.0
2017-May-29 03:00N 57°17' W 005°43'0 0.0
2017-May-29 02:30N 57°17' W 005°43'0 0.0
2017-May-29 01:59N 57°17' W 005°43'0 0.0
2017-May-29 01:30N 57°17' W 005°43'0 0.0
2017-May-29 01:00N 57°17' W 005°43'0 0.0
2017-May-29 00:30N 57°17' W 005°43'0 0.0
2017-May-29 00:00N 57°17' W 005°43'0 0.0
2017-May-28 23:30N 57°17' W 005°43'0 0.0
2017-May-28 22:59N 57°17' W 005°43'0 0.0
2017-May-28 22:30N 57°17' W 005°43'0 0.0
2017-May-28 22:00N 57°17' W 005°43'0 0.0
2017-May-28 21:30N 57°17' W 005°43'0 0.0
2017-May-28 21:00N 57°17' W 005°43'0 0.0
2017-May-28 20:29N 57°17' W 005°43'0 0.0
2017-May-28 19:59N 57°17' W 005°43'0 0.0
2017-May-28 19:29N 57°17' W 005°43'0 0.0
2017-May-28 19:00N 57°17' W 005°43'0 0.0
2017-May-28 18:29N 57°17' W 005°43'0 0.0
2017-May-28 17:56N 57°17' W 005°43'0 0.0
2017-May-28 17:29N 57°17' W 005°43'0 0.0
2017-May-28 16:59N 57°17' W 005°43'0 0.0
2017-May-28 16:29N 57°17' W 005°43'0 0.0
2017-May-28 15:59N 57°17' W 005°43'0 0.0
2017-May-28 15:29N 57°17' W 005°43'0 0.0
2017-May-28 14:56N 57°17' W 005°43'0 0.0
2017-May-28 13:59N 57°17' W 005°43'0 0.0
2017-May-28 13:29N 57°17' W 005°43'1 1.2
2017-May-28 13:00N 57°17' W 005°42'3 5.8
2017-May-28 12:30N 57°14' W 005°40'3 6.8
2017-May-28 12:00N 57°11' W 005°42'40 0.9
2017-May-26 16:54N 56°31' W 005°46'3 3.7
2017-May-26 16:03N 56°28' W 005°42'0 0.0
2017-May-26 12:27N 56°28' W 005°42'0 0.0
2017-May-26 11:57N 56°28' W 005°42'0 0.0
2017-May-26 11:27N 56°28' W 005°42'0 0.0
2017-May-26 10:57N 56°28' W 005°42'0 0.0
2017-May-26 08:33N 56°28' W 005°42'0 0.0
2017-May-26 08:21N 56°28' W 005°42'0 0.0
2017-May-26 07:51N 56°28' W 005°42'0 0.0
2017-May-26 06:47N 56°28' W 005°42'2 8.3
2017-May-26 06:31N 56°28' W 005°38'510.2
2017-May-26 06:00N 56°26' W 005°30'1 0.2
2017-May-26 00:32N 56°25' W 005°29'0 0.0
2017-May-25 09:59N 56°25' W 005°29'4 9.1
2017-May-25 09:30N 56°29' W 005°29'510.9
2017-May-25 09:00N 56°34' W 005°25'5 9.9
2017-May-25 08:30N 56°38' W 005°21'511.0
2017-May-25 08:00N 56°43' W 005°15'611.0
2017-May-25 07:30N 56°48' W 005°10'  
Track history (hours):
 
Tides and Currents Weather Stations Pressure Air Temp Water Temp Dewpoint Dewpoint Depression Visibility Wind Speed Wind Dir Waves Ship Positions

Lord Of The Glens

Operator: V Ships UK Ltd

Last reported at 2017-May-29 17:00 UTC. Time now 2017-May-29 17:03 UTC.
Position N 57°17' W 005°43'.

Length 45 m; draft 2.8 m.

Type: Passenger vessel. MMSI: 235000295.

Date/timePositionNaut miles runAvg speedWind from/ knotsBaromVisibWave heightAir tempDewpointWater temp
2017-May-29 17:00N 57°17' W 005°43'0 0.0
2017-May-29 16:30N 57°17' W 005°43'0 0.0
2017-May-29 16:00N 57°17' W 005°43'0 0.0
2017-May-29 15:30N 57°17' W 005°43'0 0.0
2017-May-29 15:00N 57°17' W 005°43'0 0.0
2017-May-29 14:30N 57°17' W 005°43'0 0.0
2017-May-29 13:30N 57°17' W 005°43'0 0.0
2017-May-29 13:00N 57°17' W 005°43'0 0.0
2017-May-29 12:26N 57°17' W 005°43'0 0.0
2017-May-29 11:59N 57°17' W 005°43'0 0.0
2017-May-29 11:30N 57°17' W 005°43'0 0.0
2017-May-29 11:00N 57°17' W 005°43'0 0.0
2017-May-29 10:29N 57°17' W 005°43'0 0.0
2017-May-29 09:59N 57°17' W 005°43'0 0.0
2017-May-29 09:29N 57°17' W 005°43'0 0.0
2017-May-29 08:59N 57°17' W 005°43'0 0.0
2017-May-29 08:29N 57°17' W 005°43'0 0.0
2017-May-29 08:00N 57°17' W 005°43'0 0.0
2017-May-29 07:30N 57°17' W 005°43'0 0.0
2017-May-29 06:59N 57°17' W 005°43'0 0.0
2017-May-29 06:29N 57°17' W 005°43'0 0.0
2017-May-29 05:59N 57°17' W 005°43'0 0.0
2017-May-29 05:26N 57°17' W 005°43'0 0.0
2017-May-29 05:00N 57°17' W 005°43'0 0.0
2017-May-29 04:30N 57°17' W 005°43'0 0.0
2017-May-29 04:00N 57°17' W 005°43'0 0.0
2017-May-29 03:29N 57°17' W 005°43'0 0.0
2017-May-29 03:00N 57°17' W 005°43'0 0.0
2017-May-29 02:30N 57°17' W 005°43'0 0.0
2017-May-29 01:59N 57°17' W 005°43'0 0.0
2017-May-29 01:30N 57°17' W 005°43'0 0.0
2017-May-29 01:00N 57°17' W 005°43'0 0.0
2017-May-29 00:30N 57°17' W 005°43'0 0.0
2017-May-29 00:00N 57°17' W 005°43'0 0.0
2017-May-28 23:30N 57°17' W 005°43'0 0.0
2017-May-28 22:59N 57°17' W 005°43'0 0.0
2017-May-28 22:30N 57°17' W 005°43'0 0.0
2017-May-28 22:00N 57°17' W 005°43'0 0.0
2017-May-28 21:30N 57°17' W 005°43'0 0.0
2017-May-28 21:00N 57°17' W 005°43'0 0.0
2017-May-28 20:29N 57°17' W 005°43'0 0.0
2017-May-28 19:59N 57°17' W 005°43'0 0.0
2017-May-28 19:29N 57°17' W 005°43'0 0.0
2017-May-28 19:00N 57°17' W 005°43'0 0.0
2017-May-28 18:29N 57°17' W 005°43'0 0.0
2017-May-28 17:56N 57°17' W 005°43'0 0.0
2017-May-28 17:29N 57°17' W 005°43'0 0.0
2017-May-28 16:59N 57°17' W 005°43'0 0.0
2017-May-28 16:29N 57°17' W 005°43'0 0.0
2017-May-28 15:59N 57°17' W 005°43'0 0.0
2017-May-28 15:29N 57°17' W 005°43'0 0.0
2017-May-28 14:56N 57°17' W 005°43'0 0.0
2017-May-28 13:59N 57°17' W 005°43'0 0.0
2017-May-28 13:29N 57°17' W 005°43'1 1.2
2017-May-28 13:00N 57°17' W 005°42'3 5.8
2017-May-28 12:30N 57°14' W 005°40'3 6.8
2017-May-28 12:00N 57°11' W 005°42'40 0.9
2017-May-26 16:54N 56°31' W 005°46'3 3.7
2017-May-26 16:03N 56°28' W 005°42'0 0.0
2017-May-26 12:27N 56°28' W 005°42'0 0.0
2017-May-26 11:57N 56°28' W 005°42'0 0.0
2017-May-26 11:27N 56°28' W 005°42'0 0.0
2017-May-26 10:57N 56°28' W 005°42'0 0.0
2017-May-26 08:33N 56°28' W 005°42'0 0.0
2017-May-26 08:21N 56°28' W 005°42'0 0.0
2017-May-26 07:51N 56°28' W 005°42'0 0.0
2017-May-26 06:47N 56°28' W 005°42'2 8.3
2017-May-26 06:31N 56°28' W 005°38'510.2
2017-May-26 06:00N 56°26' W 005°30'1 0.2
2017-May-26 00:32N 56°25' W 005°29'0 0.0
2017-May-25 09:59N 56°25' W 005°29'4 9.1
2017-May-25 09:30N 56°29' W 005°29'510.9
2017-May-25 09:00N 56°34' W 005°25'5 9.9
2017-May-25 08:30N 56°38' W 005°21'511.0
2017-May-25 08:00N 56°43' W 005°15'611.0
2017-May-25 07:30N 56°48' W 005°10'  

Dump ship's entire track history